Terminal Aerodrome Forecast
Issued by NWS

Home | Current Version | Previous Version | Text Only | Print | Product List | Glossary On
Versions: 1 2 3 4 5 6 7 8 9 10 11 12 13 14 15
422
FTUS42 KMLB 230539
TAFLEE
TAF
KLEE 230539Z 2306/2406 12005KT P6SM FEW010 SCT250
      TEMPO 2309/2312 BKN010
     FM231400 15007KT P6SM SCT030
     FM232200 12009KT P6SM SCT050 SCT070
     FM240200 14005KT P6SM SCT060 SCT090 SCT250=

USA.gov is the U.S. government's official web portal to all federal, state and local government web resources and services.